createdAt,value
2023-05-05T00:00:26.745Z,206.73
2023-05-05T00:01:26.653Z,207.41
2023-05-05T00:02:26.696Z,208.03
2023-05-05T00:03:26.543Z,207.41
2023-05-05T00:04:26.388Z,206.42
2023-05-05T00:05:26.293Z,207.61
2023-05-05T00:06:26.187Z,206.62
2023-05-05T00:07:26.106Z,207.43
2023-05-05T00:08:26.038Z,207.29
2023-05-05T00:09:26.014Z,207.47
2023-05-05T00:10:25.922Z,207.74
2023-05-05T00:11:25.832Z,207.98
2023-05-05T00:12:25.737Z,207.42
2023-05-05T00:13:25.646Z,207.27
2023-05-05T00:14:25.550Z,206.72
2023-05-05T00:15:25.461Z,207.06
2023-05-05T00:16:25.389Z,206.97
2023-05-05T00:17:25.285Z,207.04
2023-05-05T00:18:25.187Z,206.83
2023-05-05T00:19:25.087Z,207.15
2023-05-05T00:20:25.096Z,205.84
2023-05-05T00:21:25.105Z,206.95
2023-05-05T00:22:25.016Z,206.45
2023-05-05T00:23:24.914Z,206.94
2023-05-05T00:24:24.831Z,206.73
2023-05-05T00:25:24.734Z,206.91
2023-05-05T00:26:24.650Z,206.34
2023-05-05T00:27:24.650Z,206.55
2023-05-05T00:28:24.562Z,206.63
2023-05-05T00:29:24.541Z,206.66
2023-05-05T00:30:24.388Z,207.43
2023-05-05T00:31:24.334Z,206.94
2023-05-05T00:32:24.227Z,205.74
2023-05-05T00:33:24.117Z,206.99
2023-05-05T00:34:24.027Z,207.74
2023-05-05T00:35:23.955Z,206.69
2023-05-05T00:36:23.854Z,206.21
2023-05-05T00:37:23.750Z,206.97
2023-05-05T00:38:23.733Z,206.74
2023-05-05T00:39:23.643Z,206.52
2023-05-05T00:40:23.565Z,206.77
2023-05-05T00:41:23.451Z,206.74
2023-05-05T00:42:23.350Z,205.87
2023-05-05T00:43:23.299Z,206.54
2023-05-05T00:44:23.192Z,205.97
2023-05-05T00:45:23.097Z,206.71
2023-05-05T00:46:23.096Z,206.74
2023-05-05T00:47:22.918Z,206.30
2023-05-05T00:48:22.873Z,206.33
2023-05-05T00:49:22.836Z,205.61
2023-05-05T00:50:22.680Z,206.11
2023-05-05T00:51:22.592Z,206.62
2023-05-05T00:52:22.501Z,206.08
2023-05-05T00:53:22.405Z,206.70
2023-05-05T00:54:22.315Z,205.60
2023-05-05T00:55:22.219Z,206.15
2023-05-05T00:56:22.162Z,205.70
2023-05-05T00:57:22.029Z,205.38
2023-05-05T00:58:21.939Z,205.98
2023-05-05T00:59:21.845Z,205.93
2023-05-05T01:00:21.753Z,205.69
2023-05-05T01:01:21.693Z,206.63
2023-05-05T01:02:21.584Z,206.32
2023-05-05T01:03:21.636Z,206.47
2023-05-05T01:04:21.522Z,206.34
2023-05-05T01:05:21.441Z,206.24
2023-05-05T01:06:21.366Z,205.53
2023-05-05T01:07:21.270Z,206.75
2023-05-05T01:08:21.179Z,205.90
2023-05-05T01:09:21.193Z,206.23
2023-05-05T01:10:21.229Z,206.69
2023-05-05T01:11:21.027Z,205.56
2023-05-05T01:12:21.012Z,205.50
2023-05-05T01:13:20.852Z,205.54
2023-05-05T01:14:20.766Z,206.06
2023-05-05T01:15:20.681Z,205.49
2023-05-05T01:16:20.618Z,205.17
2023-05-05T01:17:20.498Z,205.24
2023-05-05T01:18:20.445Z,206.27
2023-05-05T01:19:20.367Z,205.99
2023-05-05T01:20:20.272Z,205.92
2023-05-05T01:21:20.187Z,204.96
2023-05-05T01:22:20.091Z,206.46
2023-05-05T01:23:20.005Z,205.23
2023-05-05T01:24:19.920Z,205.06
2023-05-05T01:25:19.821Z,205.20
2023-05-05T01:26:19.729Z,204.59
2023-05-05T01:27:19.652Z,205.41
2023-05-05T01:28:19.574Z,205.48
2023-05-05T01:29:19.477Z,205.23
2023-05-05T01:30:19.390Z,205.55
2023-05-05T01:31:19.340Z,204.82
2023-05-05T01:32:19.235Z,204.55
2023-05-05T01:33:19.117Z,205.19
2023-05-05T01:34:19.019Z,204.89
2023-05-05T01:35:18.925Z,205.70
2023-05-05T01:36:18.824Z,205.04
2023-05-05T01:37:18.742Z,205.35
2023-05-05T01:38:18.642Z,205.55
2023-05-05T01:39:18.543Z,205.54
2023-05-05T01:40:18.442Z,205.51
2023-05-05T01:41:18.354Z,205.11
2023-05-05T01:42:18.273Z,205.54
2023-05-05T01:43:18.187Z,205.28
2023-05-05T01:44:18.083Z,205.41
2023-05-05T01:45:18.000Z,205.78
2023-05-05T01:46:18.041Z,206.68
2023-05-05T01:47:17.831Z,206.02
2023-05-05T01:48:17.731Z,205.99
2023-05-05T01:49:17.691Z,206.16
2023-05-05T01:50:17.563Z,206.05
2023-05-05T01:51:17.482Z,206.04
2023-05-05T01:52:17.384Z,206.45
2023-05-05T01:53:17.299Z,205.63
2023-05-05T01:54:17.215Z,205.45
2023-05-05T01:55:17.117Z,205.69
2023-05-05T01:56:17.056Z,204.83
2023-05-05T01:57:16.958Z,205.05
2023-05-05T01:58:16.875Z,206.08
2023-05-05T01:59:16.789Z,205.54
2023-05-05T02:00:16.720Z,206.05
2023-05-05T02:01:16.633Z,204.84
2023-05-05T02:02:16.554Z,204.90
2023-05-05T02:03:16.557Z,205.74
2023-05-05T02:04:16.388Z,205.00
2023-05-05T02:05:16.290Z,205.18
2023-05-05T02:06:16.220Z,204.88
2023-05-05T02:07:16.158Z,205.78
2023-05-05T02:08:16.068Z,205.70
2023-05-05T02:09:15.969Z,205.40
2023-05-05T02:10:15.874Z,205.30
2023-05-05T02:11:15.801Z,204.40
2023-05-05T02:12:15.706Z,205.43
2023-05-05T02:13:15.733Z,204.79
2023-05-05T02:14:15.524Z,205.04
2023-05-05T02:15:15.480Z,205.05
2023-05-05T02:16:15.469Z,204.75
2023-05-05T02:17:15.284Z,205.38
2023-05-05T02:18:15.207Z,205.67
2023-05-05T02:19:15.182Z,204.78
2023-05-05T02:20:15.028Z,205.76
2023-05-05T02:21:14.940Z,205.72
2023-05-05T02:22:14.884Z,204.11
2023-05-05T02:23:14.783Z,204.41
2023-05-05T02:24:14.678Z,204.97
2023-05-05T02:25:14.588Z,205.52
2023-05-05T02:26:14.496Z,203.59
2023-05-05T02:27:14.406Z,204.21
2023-05-05T02:28:14.382Z,204.25
2023-05-05T02:29:14.260Z,204.79
2023-05-05T02:30:14.162Z,204.64
2023-05-05T02:31:14.108Z,204.80
2023-05-05T02:32:13.995Z,205.47
2023-05-05T02:33:13.926Z,205.24
2023-05-05T02:34:13.819Z,204.95
2023-05-05T02:35:13.724Z,204.51
2023-05-05T02:36:13.631Z,204.54
2023-05-05T02:37:13.611Z,204.35
2023-05-05T02:38:13.521Z,204.17
2023-05-05T02:39:13.433Z,204.20
2023-05-05T02:40:13.333Z,203.79
2023-05-05T02:41:13.309Z,204.30
2023-05-05T02:42:13.205Z,204.53
2023-05-05T02:43:13.135Z,204.72
2023-05-05T02:44:13.026Z,204.81
2023-05-05T02:45:12.957Z,204.92
2023-05-05T02:46:12.838Z,204.92
2023-05-05T02:47:12.762Z,204.65
2023-05-05T02:48:12.675Z,203.41
2023-05-05T02:49:12.572Z,203.69
2023-05-05T02:50:12.481Z,204.06
2023-05-05T02:51:12.390Z,203.73
2023-05-05T02:52:12.300Z,204.73
2023-05-05T02:53:12.211Z,204.50
2023-05-05T02:54:12.125Z,204.30
2023-05-05T02:55:12.030Z,203.70
2023-05-05T02:56:11.943Z,205.12
2023-05-05T02:57:11.839Z,204.56
2023-05-05T02:58:11.757Z,203.98
2023-05-05T02:59:12.478Z,205.14
2023-05-05T03:00:11.554Z,205.85
2023-05-05T03:01:11.514Z,204.70
2023-05-05T03:02:11.356Z,203.72
2023-05-05T03:03:11.362Z,203.69
2023-05-05T03:04:11.157Z,204.74
2023-05-05T03:05:11.074Z,203.22
2023-05-05T03:06:10.981Z,203.00
2023-05-05T03:07:10.877Z,203.50
2023-05-05T03:08:10.807Z,203.47
2023-05-05T03:09:10.681Z,204.32
2023-05-05T03:10:10.744Z,204.96
2023-05-05T03:11:10.500Z,204.59
2023-05-05T03:12:10.436Z,203.57
2023-05-05T03:13:10.394Z,204.57
2023-05-05T03:14:10.257Z,203.51
2023-05-05T03:15:10.167Z,203.90
2023-05-05T03:16:10.085Z,203.50
2023-05-05T03:17:09.968Z,204.22
2023-05-05T03:18:09.891Z,204.50
2023-05-05T03:19:09.878Z,203.82
2023-05-05T03:20:09.820Z,203.72
2023-05-05T03:21:09.619Z,203.18
2023-05-05T03:22:09.527Z,203.86
2023-05-05T03:23:09.442Z,203.03
2023-05-05T03:24:09.354Z,203.90
2023-05-05T03:25:09.254Z,202.57
2023-05-05T03:26:09.181Z,204.20
2023-05-05T03:27:09.078Z,204.19
2023-05-05T03:28:09.008Z,203.69
2023-05-05T03:29:08.917Z,204.61
2023-05-05T03:30:08.987Z,204.42
2023-05-05T03:31:08.701Z,203.78
2023-05-05T03:32:08.639Z,204.45
2023-05-05T03:33:08.536Z,203.36
2023-05-05T03:34:08.411Z,203.50
2023-05-05T03:35:08.316Z,202.32
2023-05-05T03:36:08.216Z,203.04
2023-05-05T03:37:08.121Z,202.33
2023-05-05T03:38:08.029Z,202.50
2023-05-05T03:39:07.928Z,202.27
2023-05-05T03:40:08.045Z,201.95
2023-05-05T03:41:07.744Z,202.20
2023-05-05T03:42:07.646Z,202.24
2023-05-05T03:43:07.556Z,202.19
2023-05-05T03:44:07.463Z,202.53
2023-05-05T03:45:07.369Z,203.10
2023-05-05T03:46:07.305Z,202.84
2023-05-05T03:47:07.196Z,202.35
2023-05-05T03:48:07.194Z,202.76
2023-05-05T03:49:07.016Z,202.87
2023-05-05T03:50:07.109Z,202.15
2023-05-05T03:51:06.870Z,203.17
2023-05-05T03:52:06.726Z,202.73
2023-05-05T03:53:06.653Z,201.97
2023-05-05T03:54:06.536Z,202.54
2023-05-05T03:55:06.495Z,202.37
2023-05-05T03:56:06.383Z,202.00
2023-05-05T03:57:06.293Z,202.44
2023-05-05T03:58:06.208Z,201.68
2023-05-05T03:59:06.110Z,203.46
2023-05-05T04:00:06.154Z,201.74
2023-05-05T04:01:05.920Z,202.67
2023-05-05T04:02:05.892Z,201.58
2023-05-05T04:03:05.916Z,202.58
2023-05-05T04:04:05.679Z,201.92
2023-05-05T04:05:05.601Z,202.21
2023-05-05T04:06:05.514Z,201.66
2023-05-05T04:07:05.397Z,202.11
2023-05-05T04:08:05.368Z,202.13
2023-05-05T04:09:05.225Z,201.28
2023-05-05T04:10:05.193Z,201.40
2023-05-05T04:11:05.029Z,200.95
2023-05-05T04:12:04.959Z,200.44
2023-05-05T04:13:04.907Z,201.97
2023-05-05T04:14:04.763Z,201.72
2023-05-05T04:15:04.690Z,201.86
2023-05-05T04:16:04.589Z,201.69
2023-05-05T04:17:04.477Z,201.35
2023-05-05T04:18:04.446Z,201.06
2023-05-05T04:19:04.305Z,202.70
2023-05-05T04:20:04.204Z,201.24
2023-05-05T04:21:04.116Z,201.20
2023-05-05T04:22:04.017Z,200.98
2023-05-05T04:23:03.948Z,201.55
2023-05-05T04:24:03.836Z,200.68
2023-05-05T04:25:03.755Z,200.83
2023-05-05T04:26:03.653Z,201.12
2023-05-05T04:27:03.556Z,201.28
2023-05-05T04:28:03.500Z,201.55
2023-05-05T04:29:03.375Z,200.78
2023-05-05T04:30:03.292Z,201.03
2023-05-05T04:31:03.297Z,200.36
2023-05-05T04:32:03.125Z,200.18
2023-05-05T04:33:03.149Z,199.69
2023-05-05T04:34:02.977Z,200.48
2023-05-05T04:35:02.874Z,200.59
2023-05-05T04:36:02.775Z,201.16
2023-05-05T04:37:02.680Z,201.16
2023-05-05T04:38:02.600Z,200.65
2023-05-05T04:39:02.527Z,201.11
2023-05-05T04:40:02.401Z,201.45
2023-05-05T04:41:02.321Z,200.88
2023-05-05T04:42:02.225Z,200.13
2023-05-05T04:43:02.131Z,200.02
2023-05-05T04:44:02.023Z,200.63
2023-05-05T04:45:01.953Z,199.94
2023-05-05T04:46:01.847Z,199.11
2023-05-05T04:47:01.754Z,199.80
2023-05-05T04:48:01.709Z,200.73
2023-05-05T04:49:01.551Z,201.01
2023-05-05T04:50:01.453Z,201.16
2023-05-05T04:51:01.361Z,200.70
2023-05-05T04:52:01.271Z,200.39
2023-05-05T04:53:01.170Z,199.82
2023-05-05T04:54:01.113Z,201.52
2023-05-05T04:55:00.979Z,200.22
2023-05-05T04:56:00.899Z,200.63
2023-05-05T04:57:00.800Z,199.88
2023-05-05T04:58:00.704Z,200.33
2023-05-05T04:59:00.614Z,199.79
2023-05-05T05:00:00.520Z,200.75
2023-05-05T05:01:00.435Z,200.26
2023-05-05T05:02:00.391Z,199.12
2023-05-05T05:03:00.345Z,199.37
2023-05-05T05:04:00.460Z,199.74
2023-05-05T05:05:00.081Z,199.54
2023-05-05T05:05:59.968Z,199.20
2023-05-05T05:06:59.866Z,199.28
2023-05-05T05:07:59.771Z,199.48
2023-05-05T05:08:59.676Z,199.74
2023-05-05T05:09:59.575Z,199.66
2023-05-05T05:10:59.487Z,197.94
2023-05-05T05:11:59.389Z,199.79
2023-05-05T05:12:59.303Z,198.03
2023-05-05T05:13:59.202Z,198.52
2023-05-05T05:14:59.130Z,197.47
2023-05-05T05:15:59.083Z,197.64
2023-05-05T05:16:58.940Z,198.84
2023-05-05T05:17:58.925Z,198.89
2023-05-05T05:19:01.397Z,198.18
2023-05-05T05:19:58.636Z,198.93
2023-05-05T05:20:58.522Z,199.80
2023-05-05T05:21:58.435Z,199.43
2023-05-05T05:22:58.306Z,193.99
2023-05-05T05:23:58.698Z,176.19
2023-05-05T05:24:58.087Z,166.69
2023-05-05T05:25:57.995Z,161.67
2023-05-05T05:26:57.876Z,151.93
2023-05-05T05:28:08.823Z,137.03
2023-05-05T05:28:58.672Z,133.68
2023-05-05T05:29:57.565Z,127.68
2023-05-05T05:30:57.487Z,108.53
2023-05-05T05:31:57.401Z,105.65
2023-05-05T05:32:57.327Z,106.13
2023-05-05T05:33:57.232Z,112.91
2023-05-05T05:34:57.713Z,121.43
2023-05-05T05:35:56.982Z,126.25
2023-05-05T05:36:56.853Z,133.27
2023-05-05T05:37:56.756Z,136.30
2023-05-05T05:38:56.642Z,135.19
2023-05-05T05:39:56.530Z,142.28
2023-05-05T05:40:56.421Z,145.69
2023-05-05T05:41:56.363Z,150.05
2023-05-05T05:42:56.216Z,150.60
2023-05-05T05:43:56.102Z,153.47
2023-05-05T05:44:56.003Z,155.00
2023-05-05T05:45:55.916Z,159.75
2023-05-05T05:46:55.808Z,159.88
2023-05-05T05:47:55.757Z,162.21
2023-05-05T05:48:55.796Z,164.19
2023-05-05T05:49:55.635Z,165.11
2023-05-05T05:50:55.566Z,165.76
2023-05-05T05:51:55.350Z,166.39
2023-05-05T05:52:55.253Z,169.87
2023-05-05T05:53:56.900Z,172.60
2023-05-05T05:54:55.062Z,177.85
2023-05-05T05:55:54.944Z,176.01
2023-05-05T05:56:54.834Z,137.90
2023-05-05T05:57:54.735Z,109.90
2023-05-05T05:58:54.611Z,82.60
2023-05-05T05:59:54.507Z,61.43
2023-05-05T06:00:54.412Z,44.63
2023-05-05T06:01:54.290Z,29.09
2023-05-05T06:02:54.311Z,25.04
2023-05-05T06:03:54.144Z,26.79
2023-05-05T06:04:53.983Z,26.48
2023-05-05T06:05:53.853Z,29.07
2023-05-05T06:06:53.740Z,30.42
2023-05-05T06:07:53.628Z,44.43
2023-05-05T06:08:53.522Z,57.39
2023-05-05T06:09:53.408Z,63.64
2023-05-05T06:10:53.311Z,70.60
2023-05-05T06:11:53.189Z,75.04
2023-05-05T06:12:53.112Z,81.61
2023-05-05T06:13:52.981Z,89.08
2023-05-05T06:14:52.866Z,93.32
2023-05-05T06:15:52.782Z,98.05
2023-05-05T06:16:52.646Z,100.07
2023-05-05T06:17:52.575Z,103.68
2023-05-05T06:18:52.414Z,105.57
2023-05-05T06:19:54.071Z,109.45
2023-05-05T06:20:52.166Z,113.24
2023-05-05T06:21:52.052Z,111.47
2023-05-05T06:22:51.940Z,92.24
2023-05-05T06:23:51.830Z,74.21
2023-05-05T06:24:51.751Z,65.92
2023-05-05T06:25:51.696Z,53.27
2023-05-05T06:26:51.634Z,56.01
2023-05-05T06:27:51.577Z,56.78
2023-05-05T06:28:51.534Z,62.11
2023-05-05T06:29:51.469Z,63.68
2023-05-05T06:30:51.389Z,67.00
2023-05-05T06:31:51.345Z,69.07
2023-05-05T06:32:51.300Z,66.83
2023-05-05T06:33:51.185Z,66.82
2023-05-05T06:34:51.229Z,72.04
2023-05-05T06:35:51.098Z,70.07
2023-05-05T06:36:50.988Z,65.65
2023-05-05T06:37:50.879Z,68.56
2023-05-05T06:38:50.799Z,74.24
2023-05-05T06:39:50.723Z,77.31
2023-05-05T06:40:50.628Z,80.18
2023-05-05T06:41:50.536Z,83.04
2023-05-05T06:42:50.455Z,90.54
2023-05-05T06:43:50.369Z,93.00
2023-05-05T06:44:50.316Z,96.67
2023-05-05T06:45:50.188Z,101.17
2023-05-05T06:46:50.152Z,105.14
2023-05-05T06:47:50.017Z,107.87
2023-05-05T06:48:49.904Z,109.04
2023-05-05T06:49:49.806Z,111.91
2023-05-05T06:50:49.694Z,115.06
2023-05-05T06:51:49.593Z,120.54
2023-05-05T06:52:49.550Z,125.47
2023-05-05T06:53:49.450Z,130.68
2023-05-05T06:54:49.294Z,133.50
2023-05-05T06:55:49.186Z,136.60
2023-05-05T06:56:49.089Z,140.20
2023-05-05T06:57:48.978Z,142.91
2023-05-05T06:58:48.873Z,146.63
2023-05-05T06:59:48.774Z,148.54
2023-05-05T07:00:48.717Z,153.78
2023-05-05T07:01:48.572Z,156.87
2023-05-05T07:02:48.497Z,159.61
2023-05-05T07:03:48.385Z,163.07
2023-05-05T07:04:48.274Z,164.98
2023-05-05T07:05:48.147Z,166.85
2023-05-05T07:06:48.042Z,169.51
2023-05-05T07:07:47.935Z,172.58
2023-05-05T07:08:47.814Z,175.10
2023-05-05T07:09:47.897Z,176.10
2023-05-05T07:10:47.616Z,180.95
2023-05-05T07:11:47.534Z,183.70
2023-05-05T07:12:47.453Z,184.93
2023-05-05T07:13:47.355Z,187.38
2023-05-05T07:14:47.292Z,190.60
2023-05-05T07:15:47.157Z,191.54
2023-05-05T07:16:47.110Z,192.41
2023-05-05T07:17:47.036Z,192.63
2023-05-05T07:18:46.924Z,203.33
2023-05-05T07:19:46.865Z,204.44
2023-05-05T07:20:46.759Z,205.26
2023-05-05T07:21:46.677Z,207.05
2023-05-05T07:22:46.603Z,198.40
2023-05-05T07:23:46.679Z,195.59
2023-05-05T07:24:46.477Z,192.22
2023-05-05T07:25:46.537Z,194.76
2023-05-05T07:26:46.340Z,195.12
2023-05-05T07:27:46.277Z,199.75
2023-05-05T07:28:46.258Z,202.71
2023-05-05T07:29:46.670Z,201.92
2023-05-05T07:30:46.145Z,204.68
2023-05-05T07:31:46.735Z,207.94
2023-05-05T07:32:46.313Z,211.35
2023-05-05T07:33:45.965Z,213.98
2023-05-05T07:34:45.903Z,216.95
2023-05-05T07:35:45.824Z,219.44
2023-05-05T07:36:45.771Z,222.85
2023-05-05T07:37:45.719Z,224.03
2023-05-05T07:38:45.643Z,226.08
2023-05-05T07:39:45.581Z,227.71
2023-05-05T07:40:45.518Z,227.04
2023-05-05T07:41:46.310Z,230.63
2023-05-05T07:42:45.380Z,229.22
2023-05-05T07:43:45.344Z,235.58
2023-05-05T07:44:45.264Z,236.81
2023-05-05T07:45:46.189Z,238.11
2023-05-05T07:46:45.147Z,238.27
2023-05-05T07:47:45.120Z,238.04
2023-05-05T07:48:45.040Z,240.44
2023-05-05T07:49:44.981Z,242.33
2023-05-05T07:50:44.922Z,241.38
2023-05-05T07:51:44.849Z,244.26
2023-05-05T07:52:48.238Z,253.43
2023-05-05T07:53:45.674Z,253.69
2023-05-05T07:54:44.536Z,254.15
2023-05-05T07:55:44.407Z,256.07
2023-05-05T07:56:44.291Z,258.85
2023-05-05T07:57:44.291Z,261.64
2023-05-05T07:58:44.055Z,248.74
2023-05-05T07:59:43.945Z,250.00
2023-05-05T08:00:43.813Z,248.96
2023-05-05T08:01:43.689Z,248.91
2023-05-05T08:02:43.646Z,248.43
2023-05-05T08:03:43.618Z,248.32
2023-05-05T08:04:43.444Z,249.83
2023-05-05T08:05:43.392Z,249.85
2023-05-05T08:06:43.308Z,250.00
2023-05-05T08:07:43.278Z,248.28
2023-05-05T08:08:43.151Z,248.24
2023-05-05T08:09:43.091Z,248.35
2023-05-05T08:10:43.687Z,250.00
2023-05-05T08:11:43.768Z,249.13
2023-05-05T08:12:42.880Z,248.30
2023-05-05T08:13:42.853Z,248.81
2023-05-05T08:14:42.742Z,246.39
2023-05-05T08:15:42.700Z,246.18
2023-05-05T08:16:42.606Z,246.66
2023-05-05T08:17:42.589Z,244.14
2023-05-05T08:18:42.440Z,241.09
2023-05-05T08:19:42.361Z,237.10
2023-05-05T08:20:42.285Z,233.05
2023-05-05T08:21:42.224Z,227.02
2023-05-05T08:22:42.154Z,218.90
2023-05-05T08:23:42.094Z,216.28
2023-05-05T08:24:42.036Z,215.05
2023-05-05T08:25:41.957Z,207.56
2023-05-05T08:26:41.883Z,204.88
2023-05-05T08:27:41.818Z,207.58
2023-05-05T08:28:41.732Z,209.04
2023-05-05T08:29:41.717Z,209.79
2023-05-05T08:30:41.572Z,209.73
2023-05-05T08:31:41.619Z,214.32
2023-05-05T08:32:41.514Z,220.03
2023-05-05T08:33:42.198Z,223.90
2023-05-05T08:34:41.252Z,223.55
2023-05-05T08:35:41.163Z,225.54
2023-05-05T08:36:41.075Z,228.61
2023-05-05T08:37:40.983Z,231.27
2023-05-05T08:38:40.896Z,234.60
2023-05-05T08:39:40.801Z,235.63
2023-05-05T08:40:40.741Z,238.14
2023-05-05T08:41:40.634Z,241.70
2023-05-05T08:42:40.528Z,242.58
2023-05-05T08:43:41.203Z,244.61
2023-05-05T08:44:40.343Z,246.92
2023-05-05T08:45:40.331Z,249.94
2023-05-05T08:46:40.185Z,248.00
2023-05-05T08:47:40.152Z,248.72
2023-05-05T08:48:39.918Z,249.74
2023-05-05T08:49:39.813Z,250.00
2023-05-05T08:50:39.715Z,250.00
2023-05-05T08:51:39.613Z,249.44
2023-05-05T08:52:39.593Z,249.98
2023-05-05T08:53:39.424Z,250.00
2023-05-05T08:54:39.303Z,248.87
2023-05-05T08:55:39.201Z,248.94
2023-05-05T08:56:39.106Z,249.46
2023-05-05T08:57:39.761Z,249.93
2023-05-05T08:58:38.919Z,249.28
2023-05-05T08:59:38.801Z,249.37
2023-05-05T09:00:38.728Z,249.33
2023-05-05T09:01:38.628Z,249.34
2023-05-05T09:02:38.588Z,249.99
2023-05-05T09:03:38.454Z,250.00
2023-05-05T09:04:38.279Z,249.58
2023-05-05T09:05:38.165Z,249.96
2023-05-05T09:06:38.069Z,249.34
2023-05-05T09:07:37.953Z,248.74
2023-05-05T09:08:37.845Z,250.00
2023-05-05T09:09:37.741Z,249.77
2023-05-05T09:10:37.628Z,250.00
2023-05-05T09:11:37.516Z,249.65
2023-05-05T09:12:37.425Z,250.00
2023-05-05T09:13:37.383Z,249.36
2023-05-05T09:14:37.184Z,249.79
2023-05-05T09:15:37.093Z,249.94
2023-05-05T09:16:37.009Z,249.13
2023-05-05T09:17:36.955Z,248.59
2023-05-05T09:18:36.748Z,248.90
2023-05-05T09:19:36.621Z,247.20
2023-05-05T09:20:36.528Z,245.04
2023-05-05T09:21:36.425Z,243.29
2023-05-05T09:22:36.324Z,241.38
2023-05-05T09:23:36.219Z,240.45
2023-05-05T09:24:36.109Z,238.09
2023-05-05T09:25:36.012Z,236.62
2023-05-05T09:26:35.916Z,235.12
2023-05-05T09:27:35.827Z,235.73
2023-05-05T09:28:37.225Z,233.67
2023-05-05T09:29:35.644Z,234.19
2023-05-05T09:30:35.551Z,233.45
2023-05-05T09:31:35.474Z,233.93
2023-05-05T09:32:35.380Z,233.30
2023-05-05T09:33:35.376Z,232.00
2023-05-05T09:34:35.231Z,232.29
2023-05-05T09:35:35.139Z,234.10
2023-05-05T09:36:35.077Z,232.12
2023-05-05T09:37:35.013Z,231.53
2023-05-05T09:38:34.981Z,233.63
2023-05-05T09:39:34.907Z,231.62
2023-05-05T09:40:34.802Z,231.91
2023-05-05T09:41:34.717Z,232.04
2023-05-05T09:42:34.643Z,231.15
2023-05-05T09:43:34.600Z,233.18
2023-05-05T09:44:34.541Z,231.79
2023-05-05T09:45:34.480Z,232.13
2023-05-05T09:46:34.506Z,231.15
2023-05-05T09:47:35.513Z,230.85
2023-05-05T09:48:37.780Z,231.51
2023-05-05T09:49:34.218Z,232.33
2023-05-05T09:50:34.056Z,231.60
2023-05-05T09:51:33.904Z,231.91
2023-05-05T09:52:33.773Z,230.87
2023-05-05T09:53:33.661Z,231.08
2023-05-05T09:54:33.527Z,230.34
2023-05-05T09:55:33.549Z,230.30
2023-05-05T09:56:33.251Z,229.05
2023-05-05T09:57:33.130Z,230.07
2023-05-05T09:58:33.919Z,230.29
2023-05-05T09:59:35.083Z,229.69
2023-05-05T10:00:32.788Z,231.25
2023-05-05T10:01:32.677Z,231.10
2023-05-05T10:02:32.626Z,230.61
2023-05-05T10:03:32.372Z,228.94
2023-05-05T10:04:32.858Z,229.29
2023-05-05T10:05:32.211Z,229.36
2023-05-05T10:06:32.056Z,229.32
2023-05-05T10:07:31.977Z,229.29
2023-05-05T10:08:31.917Z,230.20
2023-05-05T10:09:31.826Z,228.59
2023-05-05T10:10:31.958Z,229.12
2023-05-05T10:11:31.627Z,228.89
2023-05-05T10:12:31.547Z,228.38
2023-05-05T10:13:31.431Z,228.84
2023-05-05T10:14:31.290Z,230.62
2023-05-05T10:15:31.176Z,232.84
2023-05-05T10:16:31.186Z,227.26
2023-05-05T10:17:31.011Z,220.32
2023-05-05T10:18:30.941Z,203.75
2023-05-05T10:19:30.775Z,159.93
2023-05-05T10:20:30.689Z,109.20
2023-05-05T10:21:30.702Z,74.37
2023-05-05T10:22:30.556Z,50.33
2023-05-05T10:23:30.487Z,28.98
2023-05-05T10:24:30.432Z,20.98
2023-05-05T10:25:30.354Z,7.21
2023-05-05T10:26:30.287Z,14.08
2023-05-05T10:27:30.216Z,21.22
2023-05-05T10:28:30.132Z,23.31
2023-05-05T10:29:30.039Z,20.77
2023-05-05T10:30:29.957Z,20.13
2023-05-05T10:31:29.921Z,18.50
2023-05-05T10:32:53.197Z,15.59
2023-05-05T10:33:32.235Z,8.38
2023-05-05T10:34:29.694Z,0.00
2023-05-05T10:35:29.371Z,0.00
2023-05-05T10:36:29.264Z,5.60
2023-05-05T10:37:29.230Z,0.38
2023-05-05T10:38:29.846Z,3.24
2023-05-05T10:39:28.875Z,13.34
2023-05-05T10:40:28.737Z,17.59
2023-05-05T10:41:28.606Z,34.03
2023-05-05T10:42:28.491Z,40.31
2023-05-05T10:43:28.347Z,39.81
2023-05-05T10:44:28.208Z,26.12
2023-05-05T10:45:28.119Z,25.68
2023-05-05T10:46:28.874Z,24.81
2023-05-05T10:47:27.999Z,23.18
2023-05-05T10:48:27.714Z,24.18
2023-05-05T10:49:27.551Z,25.35
2023-05-05T10:50:27.422Z,25.73
2023-05-05T10:51:38.525Z,34.51
2023-05-05T10:52:28.156Z,28.91
2023-05-05T10:53:27.114Z,25.09
2023-05-05T10:54:27.821Z,23.54
2023-05-05T10:55:26.740Z,27.19
2023-05-05T10:56:26.623Z,30.83
2023-05-05T10:57:26.478Z,30.03
2023-05-05T10:58:26.341Z,36.26
2023-05-05T10:59:26.208Z,36.39
2023-05-05T11:00:26.061Z,32.85
2023-05-05T11:01:25.966Z,36.65
2023-05-05T11:02:25.885Z,33.82
2023-05-05T11:03:25.740Z,34.94
2023-05-05T11:04:26.540Z,35.08
2023-05-05T11:05:25.409Z,36.70
2023-05-05T11:06:25.269Z,41.03
2023-05-05T11:07:25.132Z,48.59
2023-05-05T11:08:25.003Z,57.66
2023-05-05T11:09:24.881Z,62.66
2023-05-05T11:10:24.758Z,67.36
2023-05-05T11:11:24.624Z,72.16
2023-05-05T11:12:24.506Z,75.74
2023-05-05T11:13:24.485Z,79.28
2023-05-05T11:14:24.261Z,82.07
2023-05-05T11:15:24.166Z,85.77
2023-05-05T11:16:24.032Z,88.84
2023-05-05T11:17:23.914Z,90.98
2023-05-05T11:18:23.741Z,92.49
2023-05-05T11:19:23.615Z,93.82
2023-05-05T11:20:23.480Z,96.11
2023-05-05T11:21:23.361Z,98.55
2023-05-05T11:22:23.229Z,100.92
2023-05-05T11:23:23.113Z,103.92
2023-05-05T11:24:22.983Z,104.26
2023-05-05T11:25:22.956Z,106.55
2023-05-05T11:26:22.809Z,106.15
2023-05-05T11:27:22.734Z,107.69
2023-05-05T11:28:22.653Z,111.08
2023-05-05T11:29:22.571Z,112.83
2023-05-05T11:30:22.494Z,114.88
2023-05-05T11:31:22.448Z,116.54
2023-05-05T11:32:22.385Z,116.71
2023-05-05T11:33:22.275Z,117.61
2023-05-05T11:34:22.193Z,119.26
2023-05-05T11:35:22.123Z,119.36
2023-05-05T11:36:22.048Z,121.71
2023-05-05T11:37:21.976Z,124.90
2023-05-05T11:38:21.900Z,125.73
2023-05-05T11:39:21.825Z,128.46
2023-05-05T11:40:21.817Z,130.62
2023-05-05T11:41:21.802Z,131.02
2023-05-05T11:42:21.610Z,131.31
2023-05-05T11:43:21.545Z,133.89
2023-05-05T11:44:21.489Z,135.54
2023-05-05T11:45:21.425Z,138.76
2023-05-05T11:46:21.384Z,139.86
2023-05-05T11:47:21.328Z,141.25
2023-05-05T11:48:21.270Z,140.17
2023-05-05T11:49:21.193Z,141.09
2023-05-05T11:50:21.077Z,142.31
2023-05-05T11:51:21.871Z,142.67
2023-05-05T11:52:20.941Z,142.61
2023-05-05T11:53:20.942Z,144.50
2023-05-05T11:54:20.808Z,144.92
2023-05-05T11:55:20.750Z,146.30
2023-05-05T11:56:20.703Z,147.81
2023-05-05T11:57:20.680Z,148.46
2023-05-05T11:58:20.642Z,149.17
2023-05-05T11:59:20.498Z,149.52
2023-05-05T12:00:20.440Z,150.72
2023-05-05T12:01:20.382Z,150.92
2023-05-05T12:02:20.397Z,152.03
2023-05-05T12:03:20.413Z,152.62
2023-05-05T12:04:20.235Z,154.20
2023-05-05T12:05:20.188Z,154.16
2023-05-05T12:06:20.118Z,155.13
2023-05-05T12:07:20.092Z,155.77
2023-05-05T12:08:20.014Z,156.61
2023-05-05T12:09:19.961Z,157.82
2023-05-05T12:10:19.917Z,157.74
2023-05-05T12:11:19.860Z,158.08
2023-05-05T12:12:19.825Z,159.28
2023-05-05T12:13:20.042Z,159.38
2023-05-05T12:14:20.380Z,160.09
2023-05-05T12:15:19.655Z,161.39
2023-05-05T12:16:19.653Z,162.25
2023-05-05T12:17:19.517Z,163.52
2023-05-05T12:18:19.475Z,163.45
2023-05-05T12:19:19.409Z,163.87
2023-05-05T12:20:19.360Z,164.55
2023-05-05T12:21:19.270Z,165.55
2023-05-05T12:22:19.219Z,166.34
2023-05-05T12:23:19.174Z,166.83
2023-05-05T12:24:19.101Z,167.14
2023-05-05T12:25:19.033Z,167.99
2023-05-05T12:26:18.947Z,169.10
2023-05-05T12:27:18.861Z,170.19
2023-05-05T12:28:18.817Z,172.25
2023-05-05T12:29:18.774Z,172.46
2023-05-05T12:30:18.812Z,174.23